createdAt,value
2023-04-06T00:02:27.970Z,10.13
2023-04-06T00:05:00.820Z,9.65
2023-04-06T00:07:31.132Z,11.57
2023-04-06T00:10:01.219Z,12.98
2023-04-06T00:12:31.354Z,13.55
2023-04-06T00:15:06.713Z,13.50
2023-04-06T00:17:36.917Z,14.00
2023-04-06T00:20:11.696Z,13.25
2023-04-06T00:25:12.609Z,13.93
2023-04-06T00:27:43.130Z,14.55
2023-04-06T00:30:14.436Z,13.73
2023-04-06T00:32:44.487Z,13.73
2023-04-06T00:35:17.224Z,13.75
2023-04-06T00:37:50.743Z,13.57
2023-04-06T00:40:21.122Z,13.18
2023-04-06T00:42:51.255Z,13.65
2023-04-06T00:45:21.588Z,12.80
2023-04-06T00:47:51.622Z,12.55
2023-04-06T00:50:24.294Z,12.43
2023-04-06T00:52:54.351Z,12.07
2023-04-06T00:55:24.463Z,12.43
2023-04-06T00:57:54.566Z,11.93
2023-04-06T01:00:24.714Z,11.20
2023-04-06T01:02:54.893Z,10.75
2023-04-06T01:05:27.592Z,9.82
2023-04-06T01:07:57.676Z,10.38
2023-04-06T01:10:28.611Z,10.13
2023-04-06T01:12:58.678Z,9.30
2023-04-06T01:15:29.951Z,9.98
2023-04-06T01:18:00.173Z,9.18
2023-04-06T01:20:32.844Z,8.95
2023-04-06T01:23:05.669Z,9.52
2023-04-06T01:25:35.703Z,9.95
2023-04-06T01:28:06.156Z,9.60
2023-04-06T01:30:36.268Z,9.27
2023-04-06T01:33:06.510Z,9.50
2023-04-06T01:35:36.862Z,10.13
2023-04-06T01:38:09.517Z,9.63
2023-04-06T01:40:39.572Z,9.43
2023-04-06T01:43:09.599Z,9.18
2023-04-06T01:45:39.638Z,9.55
2023-04-06T01:48:11.518Z,9.45
2023-04-06T01:50:41.882Z,9.32
2023-04-06T01:53:14.502Z,9.05
2023-04-06T01:55:44.521Z,9.10
2023-04-06T01:58:14.622Z,9.07
2023-04-06T02:00:44.883Z,9.63
2023-04-06T02:03:15.845Z,8.95
2023-04-06T02:05:46.091Z,9.48
2023-04-06T02:08:18.815Z,10.55
2023-04-06T02:10:48.857Z,10.93
2023-04-06T02:13:18.902Z,10.88
2023-04-06T02:15:48.965Z,10.30
2023-04-06T02:18:19.465Z,10.82
2023-04-06T02:20:49.522Z,10.45
2023-04-06T02:23:22.186Z,10.32
2023-04-06T02:25:52.227Z,10.60
2023-04-06T02:28:22.291Z,10.80
2023-04-06T02:30:52.343Z,10.10
2023-04-06T02:33:22.395Z,10.20
2023-04-06T02:35:52.441Z,10.73
2023-04-06T02:38:25.130Z,10.32
2023-04-06T02:40:55.159Z,10.10
2023-04-06T02:43:25.215Z,10.07
2023-04-06T02:45:55.549Z,10.65
2023-04-06T02:48:25.687Z,9.60
2023-04-06T02:50:55.763Z,9.82
2023-04-06T02:53:28.798Z,8.90
2023-04-06T02:55:59.265Z,10.13
2023-04-06T02:58:29.324Z,8.57
2023-04-06T03:00:59.379Z,9.60
2023-04-06T03:03:29.491Z,9.52
2023-04-06T03:06:00.714Z,9.70
2023-04-06T03:08:33.392Z,10.13
2023-04-06T03:11:03.393Z,9.50
2023-04-06T03:13:33.505Z,9.25
2023-04-06T03:16:03.524Z,9.27
2023-04-06T03:18:33.743Z,9.85
2023-04-06T03:21:03.945Z,8.60
2023-04-06T03:23:36.631Z,8.90
2023-04-06T03:26:07.346Z,8.73
2023-04-06T03:28:37.631Z,9.50
2023-04-06T03:31:07.931Z,8.52
2023-04-06T03:33:37.989Z,8.68
2023-04-06T03:36:10.843Z,8.68
2023-04-06T03:38:43.445Z,8.38
2023-04-06T03:41:13.552Z,8.32
2023-04-06T03:43:43.587Z,9.00
2023-04-06T03:46:13.654Z,8.65
2023-04-06T03:48:43.734Z,8.20
2023-04-06T03:51:13.808Z,8.45
2023-04-06T03:53:46.551Z,8.68
2023-04-06T03:56:19.999Z,8.88
2023-04-06T03:58:51.791Z,8.45
2023-04-06T04:01:21.941Z,7.90
2023-04-06T04:03:52.730Z,7.95
2023-04-06T04:06:22.862Z,8.45
2023-04-06T04:08:55.709Z,7.88
2023-04-06T04:11:25.852Z,8.27
2023-04-06T04:13:55.900Z,8.07
2023-04-06T04:16:26.124Z,8.35
2023-04-06T04:18:56.232Z,8.15
2023-04-06T04:21:26.903Z,8.25
2023-04-06T04:23:59.496Z,7.95
2023-04-06T04:26:29.505Z,8.40
2023-04-06T04:28:59.508Z,8.18
2023-04-06T04:31:29.558Z,8.23
2023-04-06T04:33:59.585Z,7.95
2023-04-06T04:36:29.663Z,8.00
2023-04-06T04:39:02.733Z,7.75
2023-04-06T04:41:33.194Z,7.13
2023-04-06T04:44:03.230Z,7.72
2023-04-06T04:46:33.256Z,7.60
2023-04-06T04:49:03.314Z,7.97
2023-04-06T04:51:33.867Z,8.30
2023-04-06T04:54:06.719Z,8.00
2023-04-06T04:56:36.806Z,8.18
2023-04-06T04:59:07.062Z,7.22
2023-04-06T05:01:47.692Z,8.73
2023-04-06T05:04:24.671Z,7.95
2023-04-06T05:06:54.778Z,8.20
2023-04-06T05:09:27.456Z,8.00
2023-04-06T05:11:57.480Z,7.95
2023-04-06T05:14:27.758Z,8.48
2023-04-06T05:16:58.381Z,8.23
2023-04-06T05:19:28.533Z,8.35
2023-04-06T05:21:58.537Z,8.02
2023-04-06T05:24:31.415Z,8.70
2023-04-06T05:27:01.586Z,8.48
2023-04-06T05:29:31.628Z,8.63
2023-04-06T05:32:01.766Z,9.00
2023-04-06T05:34:32.171Z,8.77
2023-04-06T05:37:02.160Z,8.82
2023-04-06T05:39:34.787Z,8.90
2023-04-06T05:42:09.024Z,9.02
2023-04-06T05:44:41.277Z,8.77
2023-04-06T05:47:11.298Z,10.07
2023-04-06T05:49:41.344Z,8.57
2023-04-06T05:52:12.113Z,9.15
2023-04-06T05:54:44.722Z,9.43
2023-04-06T05:57:14.713Z,9.65
2023-04-06T05:59:44.846Z,9.68
2023-04-06T06:02:15.199Z,9.00
2023-04-06T06:04:45.287Z,8.52
2023-04-06T06:07:15.497Z,8.80
2023-04-06T06:09:48.160Z,9.02
2023-04-06T06:12:18.206Z,8.32
2023-04-06T06:14:48.204Z,8.30
2023-04-06T06:17:18.759Z,8.20
2023-04-06T06:19:48.794Z,8.43
2023-04-06T06:22:18.814Z,7.47
2023-04-06T06:24:51.575Z,8.13
2023-04-06T06:27:21.640Z,7.75
2023-04-06T06:29:51.661Z,7.60
2023-04-06T06:32:22.524Z,7.78
2023-04-06T06:34:52.584Z,8.45
2023-04-06T06:37:22.663Z,7.28
2023-04-06T06:39:55.529Z,7.82
2023-04-06T06:42:25.580Z,6.57
2023-04-06T06:44:56.219Z,6.30
2023-04-06T06:47:26.664Z,6.10
2023-04-06T06:49:56.762Z,6.38
2023-04-06T06:52:26.981Z,5.50
2023-04-06T06:55:00.155Z,6.43
2023-04-06T06:57:30.294Z,6.40
2023-04-06T07:00:01.062Z,6.20
2023-04-06T07:02:31.232Z,5.40
2023-04-06T07:05:01.284Z,5.72
2023-04-06T07:07:31.328Z,5.38
2023-04-06T07:10:04.732Z,5.32
2023-04-06T07:12:36.018Z,5.60
2023-04-06T07:15:06.563Z,5.68
2023-04-06T07:17:36.727Z,6.05
2023-04-06T07:20:08.151Z,5.65
2023-04-06T07:22:38.273Z,5.30
2023-04-06T07:25:12.428Z,5.97
2023-04-06T07:27:42.518Z,5.30
2023-04-06T07:30:13.650Z,5.40
2023-04-06T07:32:43.709Z,4.65
2023-04-06T07:35:13.738Z,5.55
2023-04-06T07:37:43.838Z,4.85
2023-04-06T07:40:16.805Z,4.47
2023-04-06T07:42:46.871Z,4.47
2023-04-06T07:45:17.636Z,4.75
2023-04-06T07:47:47.981Z,4.63
2023-04-06T07:50:18.274Z,5.35
2023-04-06T07:52:48.352Z,4.90
2023-04-06T07:55:21.083Z,5.50
2023-04-06T07:57:52.166Z,4.65
2023-04-06T08:00:23.242Z,4.57
2023-04-06T08:02:53.390Z,4.38
2023-04-06T08:05:23.862Z,3.95
2023-04-06T08:07:53.914Z,4.13
2023-04-06T08:10:26.539Z,4.72
2023-04-06T08:12:56.782Z,4.05
2023-04-06T08:15:26.854Z,4.07
2023-04-06T08:17:58.397Z,4.22
2023-04-06T08:20:28.476Z,4.15
2023-04-06T08:22:58.506Z,3.58
2023-04-06T08:25:31.264Z,4.13
2023-04-06T08:28:01.282Z,4.03
2023-04-06T08:30:31.418Z,3.90
2023-04-06T08:33:01.577Z,3.45
2023-04-06T08:35:32.168Z,3.30
2023-04-06T08:38:02.402Z,3.30
2023-04-06T08:40:40.167Z,3.03
2023-04-06T08:43:16.909Z,3.15
2023-04-06T08:45:47.003Z,3.17
2023-04-06T08:48:18.622Z,2.83
2023-04-06T08:50:49.165Z,3.10
2023-04-06T08:53:22.935Z,3.05
2023-04-06T08:55:57.025Z,3.05
2023-04-06T08:58:37.630Z,2.80
2023-04-06T09:01:13.141Z,2.75
2023-04-06T09:03:44.775Z,3.30
2023-04-06T09:06:17.090Z,3.15
2023-04-06T09:08:47.282Z,3.65
2023-04-06T09:11:19.984Z,3.40
2023-04-06T09:13:52.080Z,3.10
2023-04-06T09:16:23.162Z,3.13
2023-04-06T09:18:54.074Z,2.92
2023-04-06T09:21:26.034Z,3.47
2023-04-06T09:24:03.636Z,3.03
2023-04-06T09:26:37.348Z,2.85
2023-04-06T09:29:07.446Z,3.35
2023-04-06T09:31:37.551Z,3.45
2023-04-06T09:34:08.030Z,2.67
2023-04-06T09:36:42.334Z,3.10
2023-04-06T09:39:12.455Z,3.00
2023-04-06T09:41:47.617Z,3.17
2023-04-06T09:44:17.740Z,3.20
2023-04-06T09:46:59.072Z,2.90
2023-04-06T09:49:34.289Z,2.90
2023-04-06T09:52:07.331Z,3.00
2023-04-06T09:54:39.116Z,2.72
2023-04-06T09:57:24.979Z,2.75
2023-04-06T10:00:04.861Z,2.78
2023-04-06T10:02:45.676Z,3.25
2023-04-06T10:05:22.542Z,3.20
2023-04-06T10:08:00.120Z,3.17
2023-04-06T10:10:31.783Z,3.17
2023-04-06T10:13:04.950Z,3.47
2023-04-06T10:15:35.869Z,2.83
2023-04-06T10:18:08.661Z,2.60
2023-04-06T10:20:46.041Z,2.38
2023-04-06T10:23:22.092Z,2.75
2023-04-06T10:25:59.615Z,2.78
2023-04-06T10:28:37.363Z,2.53
2023-04-06T10:31:10.208Z,2.38
2023-04-06T10:33:41.746Z,2.40
2023-04-06T10:36:15.831Z,2.60
2023-04-06T10:38:46.523Z,2.58
2023-04-06T10:41:16.754Z,2.67
2023-04-06T10:43:49.413Z,2.65
2023-04-06T10:46:29.855Z,2.45
2023-04-06T10:49:01.330Z,2.67
2023-04-06T10:51:34.025Z,2.58
2023-04-06T10:54:05.185Z,3.65
2023-04-06T10:56:36.971Z,5.82
2023-04-06T10:59:11.243Z,3.15
2023-04-06T11:01:41.351Z,2.88
2023-04-06T11:04:15.040Z,3.45
2023-04-06T11:06:45.162Z,3.70
2023-04-06T11:09:15.184Z,3.38
2023-04-06T11:11:45.235Z,2.70
2023-04-06T11:14:18.090Z,3.33
2023-04-06T11:16:52.283Z,3.40
2023-04-06T11:19:22.462Z,3.08
2023-04-06T11:21:53.259Z,2.72
2023-04-06T11:24:26.125Z,2.13
2023-04-06T11:26:59.041Z,3.60
2023-04-06T11:29:34.243Z,2.67
2023-04-06T11:32:06.462Z,2.75
2023-04-06T11:34:42.095Z,2.80
2023-04-06T11:37:14.084Z,3.03
2023-04-06T11:39:47.582Z,2.97
2023-04-06T11:42:25.433Z,2.65
2023-04-06T11:44:59.435Z,2.95
2023-04-06T11:47:34.091Z,2.80
2023-04-06T11:52:40.493Z,3.30
2023-04-06T11:55:20.059Z,3.28
2023-04-06T11:57:51.001Z,3.17
2023-04-06T12:00:25.544Z,2.50
2023-04-06T12:02:55.697Z,2.80
2023-04-06T12:05:26.167Z,3.05
2023-04-06T12:07:56.436Z,2.88
2023-04-06T12:10:27.214Z,2.30
2023-04-06T12:12:57.234Z,2.40
2023-04-06T12:15:29.925Z,2.53
2023-04-06T12:17:59.983Z,2.97
2023-04-06T12:20:30.120Z,2.60
2023-04-06T12:23:00.290Z,2.17
2023-04-06T12:25:31.224Z,2.40
2023-04-06T12:28:02.368Z,2.42
2023-04-06T12:30:35.088Z,2.50
2023-04-06T12:33:05.655Z,2.45
2023-04-06T12:35:38.272Z,2.50
2023-04-06T12:38:08.344Z,1.73
2023-04-06T12:40:42.250Z,2.08
2023-04-06T12:43:14.151Z,2.10
2023-04-06T12:45:47.197Z,2.50
2023-04-06T12:48:17.219Z,2.03
2023-04-06T12:50:47.272Z,2.65
2023-04-06T12:53:17.277Z,1.95
2023-04-06T12:55:47.491Z,1.98
2023-04-06T12:58:17.906Z,2.30
2023-04-06T13:00:51.735Z,2.60
2023-04-06T13:03:23.412Z,2.03
2023-04-06T13:05:54.434Z,1.88
2023-04-06T13:08:24.467Z,1.90
2023-04-06T13:10:56.352Z,1.75
2023-04-06T13:13:28.166Z,2.10
2023-04-06T13:16:05.874Z,2.30
2023-04-06T13:18:37.931Z,2.25
2023-04-06T13:21:08.725Z,2.20
2023-04-06T13:23:39.343Z,2.85
2023-04-06T13:26:11.098Z,2.03
2023-04-06T13:28:41.765Z,2.10
2023-04-06T13:31:14.681Z,2.40
2023-04-06T13:33:44.778Z,2.30
2023-04-06T13:36:17.863Z,2.35
2023-04-06T13:38:48.402Z,2.45
2023-04-06T13:41:24.579Z,2.50
2023-04-06T13:43:54.815Z,2.10
2023-04-06T13:46:28.911Z,2.33
2023-04-06T13:48:59.062Z,2.65
2023-04-06T13:51:29.517Z,2.80
2023-04-06T13:53:59.481Z,2.50
2023-04-06T13:56:29.459Z,2.40
2023-04-06T13:59:00.177Z,2.50
2023-04-06T14:01:32.747Z,2.70
2023-04-06T14:04:02.908Z,2.08
2023-04-06T14:06:33.072Z,2.28
2023-04-06T14:09:03.083Z,4.25
2023-04-06T14:11:33.322Z,4.88
2023-04-06T14:14:03.998Z,2.60
2023-04-06T14:16:36.570Z,2.42
2023-04-06T14:19:06.631Z,2.03
2023-04-06T14:21:36.751Z,2.22
2023-04-06T14:24:06.901Z,1.83
2023-04-06T14:26:36.916Z,2.17
2023-04-06T14:29:07.512Z,2.17
2023-04-06T14:31:40.663Z,2.67
2023-04-06T14:34:10.951Z,2.30
2023-04-06T14:36:40.950Z,1.88
2023-04-06T14:39:12.045Z,2.20
2023-04-06T14:41:42.020Z,2.40
2023-04-06T14:44:13.402Z,1.90
2023-04-06T14:46:46.160Z,2.17
2023-04-06T14:49:16.433Z,2.17
2023-04-06T14:51:46.402Z,2.20
2023-04-06T14:54:16.387Z,2.58
2023-04-06T14:56:46.570Z,2.60
2023-04-06T14:59:16.551Z,2.67
2023-04-06T15:01:49.226Z,2.50
2023-04-06T15:04:19.308Z,2.38
2023-04-06T15:06:49.572Z,2.70
2023-04-06T15:09:22.220Z,2.80
2023-04-06T15:11:52.193Z,2.25
2023-04-06T15:14:22.137Z,2.80
2023-04-06T15:16:54.698Z,2.88
2023-04-06T15:19:24.932Z,2.72
2023-04-06T15:21:54.914Z,3.40
2023-04-06T15:24:24.889Z,2.97
2023-04-06T15:26:54.884Z,2.50
2023-04-06T15:29:24.935Z,2.95
2023-04-06T15:31:57.720Z,2.63
2023-04-06T15:34:31.357Z,2.40
2023-04-06T15:37:05.991Z,2.63
2023-04-06T15:39:37.316Z,2.67
2023-04-06T15:42:07.697Z,2.35
2023-04-06T15:44:37.694Z,2.40
2023-04-06T15:47:10.294Z,2.60
2023-04-06T15:49:40.411Z,2.88
2023-04-06T15:52:10.486Z,2.78
2023-04-06T15:54:41.268Z,2.90
2023-04-06T15:57:11.384Z,2.50
2023-04-06T15:59:41.331Z,2.85
2023-04-06T16:02:13.990Z,2.80
2023-04-06T16:04:44.084Z,3.20
2023-04-06T16:07:14.104Z,2.80
2023-04-06T16:09:44.055Z,2.90
2023-04-06T16:12:14.619Z,2.83
2023-04-06T16:14:44.573Z,3.05
2023-04-06T16:17:17.232Z,3.17
2023-04-06T16:19:47.225Z,3.28
2023-04-06T16:22:17.222Z,2.83
2023-04-06T16:24:47.211Z,3.75
2023-04-06T16:27:17.782Z,4.20
2023-04-06T16:29:47.742Z,4.03
2023-04-06T16:32:20.348Z,5.00
2023-04-06T16:34:50.497Z,4.25
2023-04-06T16:37:22.430Z,3.50
2023-04-06T16:39:52.888Z,3.20
2023-04-06T16:42:22.903Z,3.15
2023-04-06T16:44:52.885Z,3.33
2023-04-06T16:47:25.546Z,3.30
2023-04-06T16:50:05.930Z,2.60
2023-04-06T16:52:37.327Z,2.88
2023-04-06T16:55:08.983Z,2.70
2023-04-06T16:57:40.180Z,3.50
2023-04-06T17:00:12.251Z,3.38
2023-04-06T17:02:44.882Z,3.30
2023-04-06T17:05:14.873Z,3.42
2023-04-06T17:07:44.839Z,3.80
2023-04-06T17:10:15.292Z,4.10
2023-04-06T17:12:46.535Z,4.20
2023-04-06T17:15:16.889Z,4.45
2023-04-06T17:17:49.428Z,4.90
2023-04-06T17:20:19.597Z,5.13
2023-04-06T17:22:49.630Z,4.65
2023-04-06T17:25:20.329Z,4.93
2023-04-06T17:27:50.384Z,4.70
2023-04-06T17:30:20.468Z,4.15
2023-04-06T17:32:53.035Z,4.35
2023-04-06T17:35:23.182Z,3.88
2023-04-06T17:37:53.763Z,4.82
2023-04-06T17:40:23.816Z,4.20
2023-04-06T17:42:53.786Z,4.72
2023-04-06T17:45:23.854Z,4.82
2023-04-06T17:47:56.440Z,4.97
2023-04-06T17:50:26.458Z,4.47
2023-04-06T17:52:56.434Z,4.85
2023-04-06T17:55:26.588Z,4.65
2023-04-06T17:57:56.590Z,5.28
2023-04-06T18:00:27.021Z,5.50
2023-04-06T18:02:59.714Z,6.13
2023-04-06T18:05:29.865Z,5.55
2023-04-06T18:08:00.703Z,6.13
2023-04-06T18:10:30.664Z,5.65
2023-04-06T18:13:01.684Z,6.35
2023-04-06T18:15:31.979Z,5.18
2023-04-06T18:18:04.542Z,5.07
2023-04-06T18:20:34.538Z,5.22
2023-04-06T18:23:04.494Z,4.80
2023-04-06T18:25:34.436Z,5.47
2023-04-06T18:28:04.445Z,6.53
2023-04-06T18:30:34.486Z,6.30
2023-04-06T18:33:07.916Z,6.38
2023-04-06T18:35:38.512Z,6.25
2023-04-06T18:38:08.473Z,6.57
2023-04-06T18:40:40.514Z,6.32
2023-04-06T18:43:12.024Z,6.78
2023-04-06T18:45:43.489Z,7.03
2023-04-06T18:48:16.379Z,7.90
2023-04-06T18:50:57.778Z,7.68
2023-04-06T18:53:27.754Z,8.48
2023-04-06T18:55:59.771Z,10.90
2023-04-06T18:58:30.398Z,11.10
2023-04-06T19:01:00.735Z,11.65
2023-04-06T19:03:33.394Z,10.98
2023-04-06T19:06:03.466Z,10.35
2023-04-06T19:08:33.422Z,9.82
2023-04-06T19:11:10.005Z,8.60
2023-04-06T19:13:40.904Z,9.25
2023-04-06T19:16:12.407Z,8.95
2023-04-06T19:18:45.809Z,9.20
2023-04-06T19:21:19.679Z,9.48
2023-04-06T19:23:51.804Z,8.80
2023-04-06T19:26:23.989Z,8.93
2023-04-06T19:28:54.105Z,9.20
2023-04-06T19:31:24.277Z,10.25
2023-04-06T19:33:57.431Z,10.75
2023-04-06T19:36:28.447Z,10.20
2023-04-06T19:38:59.005Z,12.20
2023-04-06T19:41:29.398Z,13.60
2023-04-06T19:43:59.339Z,12.95
2023-04-06T19:46:29.361Z,12.18
2023-04-06T19:49:03.267Z,12.63
2023-04-06T19:51:35.334Z,12.88
2023-04-06T19:54:05.584Z,13.32
2023-04-06T19:56:35.741Z,16.38
2023-04-06T19:59:05.966Z,16.60
2023-04-06T20:01:36.242Z,23.45
2023-04-06T20:04:09.613Z,34.03
2023-04-06T20:06:39.622Z,40.92
2023-04-06T20:09:09.670Z,48.50
2023-04-06T20:11:39.620Z,32.95
2023-04-06T20:14:09.604Z,20.10
2023-04-06T20:16:39.606Z,18.77
2023-04-06T20:19:12.256Z,16.60
2023-04-06T20:21:43.970Z,14.25
2023-04-06T20:24:14.137Z,12.00
2023-04-06T20:26:44.124Z,11.55
2023-04-06T20:29:14.081Z,11.40
2023-04-06T20:31:44.099Z,11.65
2023-04-06T20:34:17.488Z,12.20
2023-04-06T20:36:47.734Z,12.43
2023-04-06T20:39:17.693Z,12.60
2023-04-06T20:41:47.659Z,12.93
2023-04-06T20:44:17.980Z,13.90
2023-04-06T20:46:48.537Z,14.85
2023-04-06T20:49:23.640Z,13.63
2023-04-06T20:51:53.943Z,14.93
2023-04-06T20:54:24.071Z,14.38
2023-04-06T20:56:54.032Z,14.43
2023-04-06T20:59:23.977Z,15.25
2023-04-06T21:01:53.956Z,14.98
2023-04-06T21:04:26.670Z,15.13
2023-04-06T21:06:56.714Z,13.43
2023-04-06T21:09:28.136Z,13.23
2023-04-06T21:11:58.123Z,14.73
2023-04-06T21:14:28.893Z,12.88
2023-04-06T21:16:59.772Z,12.82
2023-04-06T21:19:32.614Z,13.10
2023-04-06T21:22:02.869Z,13.23
2023-04-06T21:24:33.041Z,12.98
2023-04-06T21:27:03.164Z,12.80
2023-04-06T21:29:35.649Z,12.93
2023-04-06T21:32:05.992Z,13.35
2023-04-06T21:34:38.734Z,13.20
2023-04-06T21:37:08.823Z,12.45
2023-04-06T21:39:40.292Z,12.85
2023-04-06T21:42:10.727Z,12.77
2023-04-06T21:44:40.917Z,13.07
2023-04-06T21:47:11.124Z,12.40
2023-04-06T21:49:43.944Z,12.75
2023-04-06T21:52:14.303Z,13.80
2023-04-06T21:54:44.452Z,12.32
2023-04-06T21:57:14.785Z,12.93
2023-04-06T21:59:44.938Z,12.77
2023-04-06T22:02:15.164Z,13.18
2023-04-06T22:04:48.395Z,13.25
2023-04-06T22:07:18.686Z,13.02
2023-04-06T22:09:50.885Z,14.05
2023-04-06T22:12:22.721Z,13.60
2023-04-06T22:14:52.722Z,13.55
2023-04-06T22:17:22.861Z,13.57
2023-04-06T22:19:55.442Z,13.63
2023-04-06T22:22:25.571Z,13.40
2023-04-06T22:24:56.895Z,13.75
2023-04-06T22:27:27.000Z,13.60
2023-04-06T22:29:57.024Z,13.32
2023-04-06T22:32:27.147Z,15.10
2023-04-06T22:34:59.995Z,14.35
2023-04-06T22:37:29.947Z,14.00
2023-04-06T22:39:59.931Z,14.82
2023-04-06T22:42:29.874Z,14.05
2023-04-06T22:44:59.837Z,14.32
2023-04-06T22:47:29.839Z,13.93
2023-04-06T22:50:02.501Z,13.88
2023-04-06T22:52:32.572Z,14.43
2023-04-06T22:55:02.605Z,15.95
2023-04-06T22:57:32.541Z,14.48
2023-04-06T23:00:05.384Z,15.13
2023-04-06T23:02:35.647Z,16.27
2023-04-06T23:05:09.199Z,16.05
2023-04-06T23:07:39.132Z,14.15
2023-04-06T23:10:10.526Z,14.10
2023-04-06T23:12:40.488Z,13.98
2023-04-06T23:15:12.636Z,12.88
2023-04-06T23:17:42.759Z,12.85
2023-04-06T23:20:15.906Z,12.48
2023-04-06T23:22:45.856Z,12.68
2023-04-06T23:25:15.840Z,13.18
2023-04-06T23:27:45.997Z,13.75
2023-04-06T23:30:16.490Z,12.85
2023-04-06T23:32:46.648Z,12.60
2023-04-06T23:35:19.526Z,15.48
2023-04-06T23:37:49.487Z,19.42
2023-04-06T23:40:19.699Z,25.38
2023-04-06T23:42:49.678Z,18.92
2023-04-06T23:45:19.703Z,16.63
2023-04-06T23:47:49.734Z,14.02
2023-04-06T23:50:22.459Z,12.73
2023-04-06T23:52:52.412Z,12.88
2023-04-06T23:55:22.361Z,12.48
2023-04-06T23:57:52.451Z,11.98
